createdAt,value
2022-07-28T00:00:16.457Z,100.00
2022-07-28T00:02:44.057Z,100.00
2022-07-28T00:05:12.341Z,100.00
2022-07-28T00:07:39.857Z,100.00
2022-07-28T00:10:08.149Z,100.00
2022-07-28T00:12:37.085Z,100.00
2022-07-28T00:15:05.392Z,100.00
2022-07-28T00:17:32.888Z,94.48
2022-07-28T00:20:00.475Z,100.00
2022-07-28T00:22:27.967Z,97.36
2022-07-28T00:24:55.449Z,91.54
2022-07-28T00:27:23.042Z,94.27
2022-07-28T00:29:52.066Z,100.00
2022-07-28T00:32:20.396Z,100.00
2022-07-28T00:34:48.223Z,100.00
2022-07-28T00:37:15.767Z,100.00
2022-07-28T00:39:43.403Z,100.00
2022-07-28T00:42:12.206Z,100.00
2022-07-28T00:44:42.067Z,100.00
2022-07-28T00:47:11.831Z,100.00
2022-07-28T00:49:39.971Z,98.72
2022-07-28T00:52:10.012Z,99.07
2022-07-28T00:54:37.765Z,95.55
2022-07-28T00:57:05.768Z,98.14
2022-07-28T00:59:33.922Z,97.22
2022-07-28T01:02:02.885Z,91.76
2022-07-28T01:04:32.022Z,92.90
2022-07-28T01:07:09.556Z,93.31
2022-07-28T01:09:48.573Z,97.06
2022-07-28T01:12:27.840Z,91.92
2022-07-28T01:15:02.480Z,87.26
2022-07-28T01:17:36.147Z,96.62
2022-07-28T01:20:14.215Z,92.38
2022-07-28T01:22:46.695Z,93.23
2022-07-28T01:25:22.538Z,100.00
2022-07-28T01:27:59.169Z,100.00
2022-07-28T01:30:35.316Z,100.00
2022-07-28T01:33:10.733Z,100.00
2022-07-28T01:35:48.517Z,100.00
2022-07-28T01:38:19.413Z,100.00
2022-07-28T01:40:48.238Z,100.00
2022-07-28T01:43:21.405Z,100.00
2022-07-28T01:45:50.290Z,100.00
2022-07-28T01:48:19.990Z,100.00
2022-07-28T01:50:49.839Z,100.00
2022-07-28T01:53:18.756Z,94.73
2022-07-28T01:55:48.027Z,94.63
2022-07-28T01:58:18.108Z,100.00
2022-07-28T02:00:51.284Z,100.00
2022-07-28T02:03:22.386Z,100.00
2022-07-28T02:05:53.547Z,100.00
2022-07-28T02:08:22.836Z,100.00
2022-07-28T02:11:09.207Z,100.00
2022-07-28T02:13:40.168Z,100.00
2022-07-28T02:16:10.929Z,100.00
2022-07-28T02:18:40.182Z,100.00
2022-07-28T02:21:08.831Z,100.00
2022-07-28T02:23:38.630Z,100.00
2022-07-28T02:26:10.584Z,99.25
2022-07-28T02:28:40.148Z,100.00
2022-07-28T02:31:14.401Z,100.00
2022-07-28T02:33:58.479Z,100.00
2022-07-28T02:36:30.087Z,100.00
2022-07-28T02:39:07.073Z,100.00
2022-07-28T02:41:39.827Z,100.00
2022-07-28T02:44:15.792Z,100.00
2022-07-28T02:46:47.478Z,100.00
2022-07-28T02:49:19.007Z,100.00
2022-07-28T02:51:48.040Z,100.00
2022-07-28T02:54:18.428Z,100.00
2022-07-28T02:56:53.544Z,100.00
2022-07-28T02:59:22.827Z,100.00
2022-07-28T03:01:52.969Z,100.00
2022-07-28T03:04:41.060Z,100.00
2022-07-28T03:07:11.012Z,100.00
2022-07-28T03:09:40.415Z,100.00
2022-07-28T03:12:08.486Z,100.00
2022-07-28T03:14:36.109Z,100.00
2022-07-28T03:17:06.181Z,100.00
2022-07-28T03:19:35.215Z,100.00
2022-07-28T03:22:02.880Z,100.00
2022-07-28T03:24:33.308Z,100.00
2022-07-28T03:27:05.379Z,100.00
2022-07-28T03:29:34.225Z,100.00
2022-07-28T03:32:02.021Z,100.00
2022-07-28T03:34:30.950Z,100.00
2022-07-28T03:37:03.819Z,100.00
2022-07-28T03:39:37.035Z,100.00
2022-07-28T03:42:05.068Z,100.00
2022-07-28T03:44:33.121Z,100.00
2022-07-28T03:47:00.671Z,100.00
2022-07-28T03:49:28.138Z,100.00
2022-07-28T03:51:56.951Z,100.00
2022-07-28T03:54:24.747Z,100.00
2022-07-28T03:56:52.242Z,100.00
2022-07-28T03:59:20.380Z,100.00
2022-07-28T04:01:48.021Z,100.00
2022-07-28T04:04:16.045Z,100.00
2022-07-28T04:06:43.920Z,100.00
2022-07-28T04:09:12.748Z,100.00
2022-07-28T04:11:40.237Z,100.00
2022-07-28T04:14:10.058Z,100.00
2022-07-28T04:16:40.798Z,100.00
2022-07-28T04:19:08.306Z,100.00
2022-07-28T04:21:35.897Z,100.00
2022-07-28T04:24:03.356Z,100.00
2022-07-28T04:26:32.181Z,100.00
2022-07-28T04:28:59.683Z,100.00
2022-07-28T04:31:31.298Z,100.00
2022-07-28T04:33:59.980Z,100.00
2022-07-28T04:36:27.592Z,100.00
2022-07-28T04:38:56.610Z,100.00
2022-07-28T04:41:24.153Z,100.00
2022-07-28T04:43:52.984Z,97.79
2022-07-28T04:46:20.523Z,94.87
2022-07-28T04:48:48.136Z,89.17
2022-07-28T04:51:15.671Z,89.60
2022-07-28T04:53:43.257Z,85.81
2022-07-28T04:56:11.082Z,84.73
2022-07-28T04:58:38.558Z,81.85
2022-07-28T05:01:07.915Z,81.51
2022-07-28T05:03:36.528Z,81.85
2022-07-28T05:06:04.923Z,81.68
2022-07-28T05:08:32.405Z,80.13
2022-07-28T05:10:59.897Z,75.88
2022-07-28T05:13:33.413Z,77.66
2022-07-28T05:16:02.378Z,74.44
2022-07-28T05:18:31.218Z,67.48
2022-07-28T05:20:58.726Z,64.66
2022-07-28T05:23:26.184Z,65.32
2022-07-28T05:25:54.425Z,61.23
2022-07-28T05:28:21.926Z,58.66
2022-07-28T05:30:49.541Z,58.17
2022-07-28T05:33:17.439Z,59.34
2022-07-28T05:35:53.418Z,60.90
2022-07-28T05:38:21.236Z,61.10
2022-07-28T05:40:48.851Z,61.33
2022-07-28T05:43:16.747Z,59.28
2022-07-28T05:45:44.342Z,57.74
2022-07-28T05:48:11.987Z,61.71
2022-07-28T05:50:39.853Z,61.14
2022-07-28T05:53:08.747Z,59.35
2022-07-28T05:55:36.279Z,57.57
2022-07-28T05:58:24.454Z,57.27
2022-07-28T06:00:52.314Z,57.76
2022-07-28T06:03:19.876Z,57.89
2022-07-28T06:06:14.392Z,56.97
2022-07-28T06:08:36.383Z,53.72
2022-07-28T06:11:09.219Z,53.32
2022-07-28T06:13:37.075Z,51.07
2022-07-28T06:16:08.443Z,52.23
2022-07-28T06:18:38.709Z,52.49
2022-07-28T06:21:06.250Z,53.17
2022-07-28T06:23:33.787Z,53.46
2022-07-28T06:26:02.658Z,50.91
2022-07-28T06:28:30.166Z,49.48
2022-07-28T06:30:57.682Z,50.10
2022-07-28T06:33:25.324Z,52.57
2022-07-28T06:35:52.838Z,51.03
2022-07-28T06:38:21.116Z,51.31
2022-07-28T06:40:48.867Z,49.47
2022-07-28T06:43:17.741Z,49.33
2022-07-28T06:45:45.943Z,49.57
2022-07-28T06:48:14.136Z,48.33
2022-07-28T06:50:42.976Z,50.35
2022-07-28T06:53:10.602Z,48.96
2022-07-28T06:55:38.828Z,47.17
2022-07-28T06:58:09.127Z,46.90
2022-07-28T07:00:38.188Z,46.47
2022-07-28T07:03:09.589Z,47.10
2022-07-28T07:05:37.468Z,49.85
2022-07-28T07:08:05.379Z,48.00
2022-07-28T07:10:32.928Z,48.98
2022-07-28T07:13:00.424Z,47.48
2022-07-28T07:15:28.260Z,48.03
2022-07-28T07:17:57.120Z,47.18
2022-07-28T07:20:24.642Z,47.35
2022-07-28T07:22:52.193Z,44.53
2022-07-28T07:25:20.788Z,43.87
2022-07-28T07:27:48.429Z,43.10
2022-07-28T07:30:17.072Z,39.46
2022-07-28T07:32:44.975Z,39.26
2022-07-28T07:35:13.902Z,39.78
2022-07-28T07:37:41.848Z,40.39
2022-07-28T07:40:10.329Z,39.55
2022-07-28T07:42:37.935Z,39.29
2022-07-28T07:45:06.469Z,38.79
2022-07-28T07:47:34.037Z,40.92
2022-07-28T07:50:04.187Z,40.33
2022-07-28T07:52:33.689Z,39.34
2022-07-28T07:55:01.214Z,38.54
2022-07-28T07:57:29.705Z,36.54
2022-07-28T07:59:57.293Z,36.53
2022-07-28T08:02:24.830Z,35.83
2022-07-28T08:04:52.433Z,39.18
2022-07-28T08:07:22.013Z,37.15
2022-07-28T08:09:51.172Z,37.12
2022-07-28T08:12:25.095Z,36.83
2022-07-28T08:14:53.190Z,37.42
2022-07-28T08:17:25.551Z,35.72
2022-07-28T08:19:53.656Z,33.93
2022-07-28T08:22:21.170Z,32.70
2022-07-28T08:24:48.688Z,34.61
2022-07-28T08:27:17.705Z,36.56
2022-07-28T08:29:45.387Z,37.20
2022-07-28T08:32:12.992Z,36.80
2022-07-28T08:34:40.556Z,36.08
2022-07-28T08:37:08.523Z,36.59
2022-07-28T08:39:37.101Z,35.40
2022-07-28T08:42:07.101Z,36.50
2022-07-28T08:44:42.769Z,41.64
2022-07-28T08:47:12.171Z,39.88
2022-07-28T08:49:42.808Z,36.87
2022-07-28T08:52:12.416Z,35.30
2022-07-28T08:54:43.607Z,35.13
2022-07-28T08:57:17.040Z,35.44
2022-07-28T08:59:46.309Z,33.17
2022-07-28T09:02:14.168Z,32.68
2022-07-28T09:04:43.954Z,31.99
2022-07-28T09:07:12.120Z,32.99
2022-07-28T09:09:40.036Z,34.25
2022-07-28T09:12:08.274Z,34.76
2022-07-28T09:14:36.017Z,35.11
2022-07-28T09:17:05.457Z,33.58
2022-07-28T09:19:34.403Z,36.12
2022-07-28T09:22:04.376Z,35.79
2022-07-28T09:24:37.094Z,35.33
2022-07-28T09:27:07.754Z,35.77
2022-07-28T09:29:36.130Z,36.93
2022-07-28T09:32:05.483Z,37.47
2022-07-28T09:34:41.574Z,36.53
2022-07-28T09:37:17.541Z,34.87
2022-07-28T09:39:47.968Z,34.98
2022-07-28T09:42:15.967Z,35.43
2022-07-28T09:45:00.060Z,34.78
2022-07-28T09:47:33.269Z,33.46
2022-07-28T09:50:01.042Z,31.88
2022-07-28T09:52:30.323Z,31.83
2022-07-28T09:55:01.946Z,32.51
2022-07-28T09:57:30.921Z,33.27
2022-07-28T10:00:01.469Z,32.14
2022-07-28T10:02:32.504Z,31.24
2022-07-28T10:05:01.437Z,31.12
2022-07-28T10:07:30.120Z,33.31
2022-07-28T10:09:59.060Z,34.56
2022-07-28T10:12:27.878Z,34.55
2022-07-28T10:14:56.854Z,34.53
2022-07-28T10:17:26.319Z,37.50
2022-07-28T10:19:57.659Z,36.91
2022-07-28T10:22:28.437Z,37.70
2022-07-28T10:24:57.513Z,37.27
2022-07-28T10:27:25.962Z,36.01
2022-07-28T10:29:59.358Z,35.74
2022-07-28T10:32:29.493Z,36.87
2022-07-28T10:35:02.545Z,35.13
2022-07-28T10:37:32.685Z,34.86
2022-07-28T10:40:10.061Z,34.26
2022-07-28T10:42:39.556Z,32.54
2022-07-28T10:45:10.303Z,31.46
2022-07-28T10:47:37.864Z,34.81
2022-07-28T10:50:08.535Z,34.57
2022-07-28T10:52:47.386Z,34.28
2022-07-28T10:55:21.818Z,32.61
2022-07-28T10:58:02.034Z,32.00
2022-07-28T11:00:55.447Z,31.84
2022-07-28T11:03:39.972Z,31.81
2022-07-28T11:06:30.121Z,30.95
2022-07-28T11:08:58.747Z,30.04
2022-07-28T11:11:45.941Z,32.57
2022-07-28T11:14:37.169Z,34.22
2022-07-28T11:17:24.046Z,35.55
2022-07-28T11:22:45.590Z,34.67
2022-07-28T11:25:21.084Z,33.04
2022-07-28T11:28:05.843Z,31.24
2022-07-28T11:30:55.633Z,30.80
2022-07-28T11:33:25.086Z,31.02
2022-07-28T11:35:57.977Z,31.37
2022-07-28T11:38:27.888Z,30.92
2022-07-28T11:40:57.377Z,29.39
2022-07-28T11:43:37.466Z,30.26
2022-07-28T11:46:34.435Z,31.88
2022-07-28T11:49:27.778Z,31.97
2022-07-28T11:52:09.787Z,30.12
2022-07-28T11:54:40.671Z,28.29
2022-07-28T11:57:10.847Z,27.39
2022-07-28T12:00:00.165Z,28.47
2022-07-28T12:02:31.573Z,28.70
2022-07-28T12:05:23.634Z,29.63
2022-07-28T12:07:53.590Z,30.98
2022-07-28T12:10:53.966Z,29.68
2022-07-28T12:13:28.561Z,28.25
2022-07-28T12:15:56.145Z,29.11
2022-07-28T12:18:24.758Z,28.70
2022-07-28T12:20:53.743Z,29.39
2022-07-28T12:23:38.732Z,30.46
2022-07-28T12:26:07.653Z,30.59
2022-07-28T12:28:37.701Z,29.34
2022-07-28T12:31:12.430Z,28.23
2022-07-28T12:33:40.207Z,30.61
2022-07-28T12:36:09.259Z,29.22
2022-07-28T12:38:37.047Z,28.37
2022-07-28T12:41:16.468Z,29.51
2022-07-28T12:43:51.224Z,29.49
2022-07-28T12:46:23.672Z,29.06
2022-07-28T12:48:56.668Z,28.23
2022-07-28T12:51:35.573Z,28.00
2022-07-28T12:54:04.379Z,28.01
2022-07-28T12:56:33.719Z,29.03
2022-07-28T12:59:06.314Z,30.46
2022-07-28T13:01:51.351Z,29.87
2022-07-28T13:04:40.568Z,29.42
2022-07-28T13:07:10.644Z,28.42
2022-07-28T13:09:41.642Z,27.41
2022-07-28T13:12:21.835Z,26.71
2022-07-28T13:14:52.672Z,27.02
2022-07-28T13:17:22.047Z,25.65
2022-07-28T13:19:50.658Z,27.84
2022-07-28T13:22:27.604Z,28.26
2022-07-28T13:24:56.895Z,27.51
2022-07-28T13:27:25.930Z,28.34
2022-07-28T13:29:53.960Z,27.59
2022-07-28T13:32:21.587Z,27.55
2022-07-28T13:34:49.210Z,27.29
2022-07-28T13:37:16.782Z,27.39
2022-07-28T13:39:44.359Z,27.02
2022-07-28T13:42:11.977Z,25.47
2022-07-28T13:44:42.177Z,24.02
2022-07-28T13:47:10.091Z,24.03
2022-07-28T13:49:38.186Z,24.02
2022-07-28T13:52:12.927Z,23.28
2022-07-28T13:54:41.076Z,25.38
2022-07-28T13:57:08.648Z,24.96
2022-07-28T13:59:37.900Z,24.29
2022-07-28T14:02:15.050Z,23.47
2022-07-28T14:04:45.945Z,26.22
2022-07-28T14:07:20.562Z,26.75
2022-07-28T14:09:50.185Z,27.66
2022-07-28T14:12:17.754Z,28.90
2022-07-28T14:14:48.433Z,29.18
2022-07-28T14:17:50.232Z,29.78
2022-07-28T14:20:11.304Z,28.91
2022-07-28T14:22:38.908Z,28.57
2022-07-28T14:25:07.402Z,27.49
2022-07-28T14:27:35.168Z,27.45
2022-07-28T14:30:04.155Z,26.06
2022-07-28T14:32:33.565Z,25.07
2022-07-28T14:35:02.337Z,24.41
2022-07-28T14:37:47.103Z,25.49
2022-07-28T14:40:18.527Z,25.99
2022-07-28T14:42:46.031Z,26.03
2022-07-28T14:45:14.245Z,28.91
2022-07-28T14:47:45.348Z,27.64
2022-07-28T14:50:13.518Z,25.41
2022-07-28T14:52:44.752Z,27.33
2022-07-28T14:55:12.960Z,29.85
2022-07-28T14:57:52.107Z,29.95
2022-07-28T15:00:23.394Z,30.57
2022-07-28T15:02:52.916Z,30.03
2022-07-28T15:05:21.088Z,29.89
2022-07-28T15:07:49.370Z,29.23
2022-07-28T15:10:17.124Z,30.30
2022-07-28T15:12:44.804Z,29.62
2022-07-28T15:15:12.866Z,29.46
2022-07-28T15:17:40.522Z,30.98
2022-07-28T15:20:11.373Z,30.81
2022-07-28T15:22:38.929Z,29.92
2022-07-28T15:25:07.176Z,31.71
2022-07-28T15:27:34.657Z,33.57
2022-07-28T15:30:03.416Z,31.97
2022-07-28T15:32:31.622Z,31.15
2022-07-28T15:34:59.670Z,30.79
2022-07-28T15:37:28.548Z,30.68
2022-07-28T15:39:56.112Z,30.10
2022-07-28T15:42:23.679Z,30.12
2022-07-28T15:44:53.159Z,30.15
2022-07-28T15:47:21.998Z,30.09
2022-07-28T15:49:49.471Z,29.62
2022-07-28T15:52:17.004Z,29.75
2022-07-28T15:54:47.716Z,29.83
2022-07-28T15:57:15.210Z,28.95
2022-07-28T15:59:50.100Z,28.53
2022-07-28T16:02:19.291Z,29.55
2022-07-28T16:04:53.344Z,30.90
2022-07-28T16:07:23.289Z,30.31
2022-07-28T16:09:54.629Z,31.10
2022-07-28T16:12:22.774Z,30.68
2022-07-28T16:14:54.083Z,30.83
2022-07-28T16:17:22.534Z,32.45
2022-07-28T16:19:51.185Z,32.74
2022-07-28T16:22:18.919Z,33.21
2022-07-28T16:24:46.533Z,32.76
2022-07-28T16:27:15.752Z,32.40
2022-07-28T16:29:43.289Z,32.76
2022-07-28T16:32:11.169Z,33.29
2022-07-28T16:34:38.731Z,33.24
2022-07-28T16:37:06.366Z,33.68
2022-07-28T16:39:34.246Z,34.33
2022-07-28T16:42:02.753Z,34.02
2022-07-28T16:44:32.184Z,33.40
2022-07-28T16:46:59.798Z,33.55
2022-07-28T16:49:27.650Z,34.21
2022-07-28T16:51:56.049Z,34.44
2022-07-28T16:54:23.873Z,35.40
2022-07-28T16:56:51.787Z,35.95
2022-07-28T16:59:19.319Z,34.96
2022-07-28T17:01:48.256Z,35.54
2022-07-28T17:04:17.366Z,35.12
2022-07-28T17:06:45.289Z,34.99
2022-07-28T17:09:15.826Z,34.08
2022-07-28T17:11:43.772Z,34.68
2022-07-28T17:14:12.553Z,35.51
2022-07-28T17:16:40.338Z,36.13
2022-07-28T17:19:09.554Z,35.13
2022-07-28T17:21:37.392Z,36.43
2022-07-28T17:24:05.866Z,36.48
2022-07-28T17:29:22.421Z,37.66
2022-07-28T17:31:50.221Z,37.13
2022-07-28T17:34:19.415Z,36.97
2022-07-28T17:36:48.049Z,37.68
2022-07-28T17:39:15.511Z,37.69
2022-07-28T17:41:43.039Z,37.26
2022-07-28T17:44:10.509Z,36.95
2022-07-28T17:46:38.624Z,37.28
2022-07-28T17:49:07.901Z,37.75
2022-07-28T17:51:37.430Z,37.39
2022-07-28T17:54:05.402Z,37.29
2022-07-28T17:56:36.505Z,38.76
2022-07-28T17:59:05.943Z,38.48
2022-07-28T18:01:33.502Z,38.42
2022-07-28T18:04:01.337Z,39.01
2022-07-28T18:06:34.337Z,39.09
2022-07-28T18:09:06.332Z,39.52
2022-07-28T18:11:35.965Z,39.64
2022-07-28T18:14:05.577Z,39.73
2022-07-28T18:16:34.052Z,40.18
2022-07-28T18:19:02.155Z,40.48
2022-07-28T18:21:29.860Z,41.01
2022-07-28T18:23:57.397Z,41.30
2022-07-28T18:26:26.288Z,41.53
2022-07-28T18:28:53.770Z,41.62
2022-07-28T18:31:21.757Z,42.00
2022-07-28T18:33:49.350Z,42.39
2022-07-28T18:36:16.848Z,42.50
2022-07-28T18:38:44.323Z,42.45
2022-07-28T18:41:11.785Z,43.04
2022-07-28T18:43:40.583Z,42.62
2022-07-28T18:46:08.344Z,43.45
2022-07-28T18:48:35.900Z,43.09
2022-07-28T18:51:03.383Z,43.91
2022-07-28T18:53:30.906Z,43.18
2022-07-28T18:55:59.127Z,43.87
2022-07-28T18:58:26.663Z,44.39
2022-07-28T19:00:55.512Z,44.47
2022-07-28T19:03:23.074Z,44.21
2022-07-28T19:05:53.678Z,44.28
2022-07-28T19:08:21.511Z,43.90
2022-07-28T19:10:49.336Z,44.75
2022-07-28T19:13:16.846Z,43.85
2022-07-28T19:15:44.511Z,44.36
2022-07-28T19:18:13.412Z,44.59
2022-07-28T19:20:41.237Z,45.35
2022-07-28T19:23:08.751Z,45.04
2022-07-28T19:25:37.599Z,44.66
2022-07-28T19:28:05.404Z,44.76
2022-07-28T19:30:33.090Z,44.95
2022-07-28T19:33:00.787Z,45.01
2022-07-28T19:35:30.225Z,45.26
2022-07-28T19:37:59.882Z,44.54
2022-07-28T19:40:29.615Z,45.82
2022-07-28T19:42:57.444Z,45.85
2022-07-28T19:45:25.179Z,46.83
2022-07-28T19:47:54.459Z,47.77
2022-07-28T19:50:22.260Z,48.13
2022-07-28T19:52:51.239Z,48.71
2022-07-28T19:55:18.890Z,48.69
2022-07-28T19:57:47.141Z,49.36
2022-07-28T20:00:17.231Z,49.67
2022-07-28T20:02:45.729Z,50.00
2022-07-28T20:05:13.543Z,48.79
2022-07-28T20:07:41.080Z,48.31
2022-07-28T20:10:10.314Z,48.69
2022-07-28T20:12:38.083Z,48.33
2022-07-28T20:15:06.018Z,48.26
2022-07-28T20:17:38.917Z,49.60
2022-07-28T20:20:08.585Z,48.41
2022-07-28T20:22:36.201Z,48.81
2022-07-28T20:25:03.924Z,49.40
2022-07-28T20:27:32.784Z,49.50
2022-07-28T20:30:09.616Z,48.75
2022-07-28T20:32:37.796Z,49.05
2022-07-28T20:35:06.327Z,48.05
2022-07-28T20:37:37.313Z,48.88
2022-07-28T20:40:06.955Z,49.75
2022-07-28T20:42:36.690Z,48.41
2022-07-28T20:45:05.304Z,48.44
2022-07-28T20:47:33.272Z,49.07
2022-07-28T20:50:00.901Z,49.91
2022-07-28T20:52:28.592Z,52.34
2022-07-28T20:54:56.142Z,51.97
2022-07-28T20:57:23.891Z,52.85
2022-07-28T20:59:52.846Z,52.88
2022-07-28T21:02:21.384Z,52.19
2022-07-28T21:04:50.487Z,52.08
2022-07-28T21:08:05.093Z,52.25
2022-07-28T21:10:07.580Z,51.70
2022-07-28T21:12:36.942Z,52.87
2022-07-28T21:15:07.207Z,52.67
2022-07-28T21:17:35.297Z,51.48
2022-07-28T21:20:02.981Z,51.72
2022-07-28T21:22:30.784Z,52.47
2022-07-28T21:24:59.045Z,52.04
2022-07-28T21:27:26.571Z,52.12
2022-07-28T21:32:20.939Z,53.33
2022-07-28T21:34:48.566Z,53.68
2022-07-28T21:37:16.106Z,53.84
2022-07-28T21:39:44.202Z,55.51
2022-07-28T21:42:11.726Z,55.12
2022-07-28T21:44:39.245Z,54.06
2022-07-28T21:47:07.005Z,53.82
2022-07-28T21:49:35.876Z,53.46
2022-07-28T21:52:03.425Z,54.89
2022-07-28T21:54:31.018Z,54.56
2022-07-28T21:56:58.730Z,53.79
2022-07-28T21:59:26.347Z,52.49
2022-07-28T22:01:53.913Z,51.93
2022-07-28T22:04:21.874Z,52.57
2022-07-28T22:06:50.990Z,51.73
2022-07-28T22:09:18.493Z,52.06
2022-07-28T22:11:46.172Z,51.15
2022-07-28T22:14:14.065Z,51.20
2022-07-28T22:16:41.853Z,51.69
2022-07-28T22:19:11.760Z,52.02
2022-07-28T22:21:39.356Z,52.35
2022-07-28T22:24:09.719Z,53.21
2022-07-28T22:26:37.301Z,52.37
2022-07-28T22:29:04.820Z,52.02
2022-07-28T22:31:32.402Z,53.48
2022-07-28T22:33:59.969Z,53.26
2022-07-28T22:36:27.597Z,54.12
2022-07-28T22:38:55.524Z,53.70
2022-07-28T22:41:24.586Z,52.89
2022-07-28T22:43:52.233Z,53.80
2022-07-28T22:46:19.843Z,54.64
2022-07-28T22:48:47.544Z,54.39
2022-07-28T22:51:16.079Z,54.44
2022-07-28T22:53:43.572Z,54.32
2022-07-28T22:56:11.839Z,54.86
2022-07-28T22:58:41.010Z,54.83
2022-07-28T23:01:08.612Z,54.36
2022-07-28T23:03:36.753Z,55.17
2022-07-28T23:06:05.871Z,55.85
2022-07-28T23:08:33.489Z,54.42
2022-07-28T23:11:01.021Z,54.55
2022-07-28T23:13:28.612Z,53.31
2022-07-28T23:15:57.523Z,51.92
2022-07-28T23:18:25.056Z,50.87
2022-07-28T23:20:52.720Z,50.48
2022-07-28T23:23:21.147Z,52.01
2022-07-28T23:25:48.700Z,53.71
2022-07-28T23:28:16.266Z,53.53
2022-07-28T23:30:45.413Z,52.71
2022-07-28T23:33:15.629Z,52.46
2022-07-28T23:36:01.831Z,51.82
2022-07-28T23:38:29.370Z,51.60
2022-07-28T23:40:56.858Z,51.97
2022-07-28T23:43:24.350Z,50.67
2022-07-28T23:45:51.874Z,51.28
2022-07-28T23:48:20.712Z,51.58
2022-07-28T23:50:48.255Z,51.27
2022-07-28T23:53:15.757Z,51.43
2022-07-28T23:55:45.085Z,50.64
2022-07-28T23:58:12.580Z,50.29
